Time;durP1;ratioP1;P1;durP2;ratioP2;P2;SDS_P1;SDS_P2;PMS_P1;PMS_P2;Temp;Humidity;BMP_temperature;BMP_pressure;BME280_temperature;BME280_humidity;BME280_pressure;Samples;Min_cycle;Max_cycle;Signal;HPM_P1;HPM_P2
2023/10/18 00:02:18;;;;;;;17.30;14.18;;;;;;;9.01;100.00;93178.22;5065148;28;20072;-81
2023/10/18 00:04:45;;;;;;;17.80;13.80;;;;;;;9.07;100.00;93173.06;5063773;28;20102;-81
2023/10/18 00:07:15;;;;;;;16.02;14.23;;;;;;;9.06;100.00;93179.19;5067860;28;20048;-81
2023/10/18 00:09:49;;;;;;;17.17;14.82;;;;;;;9.06;100.00;93178.41;5065039;28;20073;-80
2023/10/18 00:12:18;;;;;;;18.38;14.93;;;;;;;9.09;100.00;93175.44;5064593;28;20052;-80
2023/10/18 00:14:45;;;;;;;17.20;14.60;;;;;;;9.12;100.00;93179.38;5067429;28;20052;-80
2023/10/18 00:17:14;;;;;;;18.70;16.10;;;;;;;8.95;100.00;93147.28;5066763;28;20064;-80
2023/10/18 00:19:41;;;;;;;21.05;16.60;;;;;;;9.04;100.00;93172.69;5063783;28;20048;-79
2023/10/18 00:22:10;;;;;;;18.33;15.38;;;;;;;8.88;100.00;93159.31;5067652;28;20055;-79
2023/10/18 00:24:39;;;;;;;17.33;15.35;;;;;;;8.85;100.00;93158.94;5062483;28;20048;-79
2023/10/18 00:27:06;;;;;;;20.58;17.05;;;;;;;8.85;100.00;93161.50;5065907;28;20076;-79
2023/10/18 00:29:33;;;;;;;22.73;16.90;;;;;;;8.82;100.00;93148.13;5061506;28;20084;-79
2023/10/18 00:32:00;;;;;;;21.48;17.25;;;;;;;8.85;100.00;93144.38;5064402;28;20381;-78
2023/10/18 00:34:29;;;;;;;19.27;16.45;;;;;;;8.81;100.00;93148.31;5056402;28;20493;-78
2023/10/18 00:36:56;;;;;;;20.50;16.33;;;;;;;8.86;100.00;93150.25;5047286;28;20052;-81
2023/10/18 00:39:27;;;;;;;17.13;14.43;;;;;;;8.90;100.00;93147.13;5048197;28;20049;-81
2023/10/18 00:41:54;;;;;;;20.10;16.15;;;;;;;8.88;100.00;93133.69;5048589;28;20102;-81
2023/10/18 00:44:22;;;;;;;20.80;16.38;;;;;;;8.91;100.00;93137.63;5046051;28;20052;-81
2023/10/18 00:46:52;;;;;;;19.67;16.65;;;;;;;8.98;100.00;93142.75;5045786;28;20044;-81
2023/10/18 00:49:20;;;;;;;19.98;17.83;;;;;;;9.01;100.00;93139.78;5043689;28;20052;-81
2023/10/18 00:51:50;;;;;;;24.42;19.10;;;;;;;9.07;100.00;93141.53;5065306;28;21017;-81
2023/10/18 00:54:19;;;;;;;19.95;16.67;;;;;;;9.06;100.00;93145.88;5066799;28;20101;-81
2023/10/18 00:56:46;;;;;;;19.75;16.20;;;;;;;9.11;100.00;93150.41;5063741;28;20049;-81
2023/10/18 00:59:21;;;;;;;17.33;14.80;;;;;;;9.05;100.00;93154.56;5066620;28;20404;-81
2023/10/18 01:01:55;;;;;;;17.08;14.35;;;;;;;9.07;100.00;93159.47;5066648;28;20048;-81
2023/10/18 01:04:24;;;;;;;18.80;14.00;;;;;;;9.04;100.00;93150.44;5062166;28;20055;-79
2023/10/18 01:06:54;;;;;;;17.17;14.35;;;;;;;8.79;100.00;93107.53;5064961;28;20525;-79
2023/10/18 01:09:20;;;;;;;17.45;14.52;;;;;;;9.06;100.00;93148.44;5066588;28;20097;-79
2023/10/18 01:11:51;;;;;;;15.80;13.13;;;;;;;9.05;100.00;93144.31;5066853;28;20084;-79
2023/10/18 01:14:18;;;;;;;19.30;13.55;;;;;;;9.07;100.00;93150.00;5064802;28;20048;-79
2023/10/18 01:16:45;;;;;;;16.35;14.13;;;;;;;9.11;100.00;93145.28;5066712;28;20056;-79
2023/10/18 01:19:15;;;;;;;17.73;14.48;;;;;;;9.09;100.00;93153.16;5066629;28;20057;-80
2023/10/18 01:21:45;;;;;;;17.60;13.77;;;;;;;9.15;100.00;93158.47;5064377;28;20135;-79
2023/10/18 01:24:16;;;;;;;16.65;13.82;;;;;;;9.13;100.00;93161.25;5062208;28;20049;-79
2023/10/18 01:26:45;;;;;;;15.88;13.10;;;;;;;9.06;100.00;93152.78;5061650;28;20041;-79
2023/10/18 01:29:12;;;;;;;18.42;14.50;;;;;;;9.07;100.00;93156.91;5064474;28;20829;-79
2023/10/18 01:31:44;;;;;;;15.10;13.30;;;;;;;9.12;100.00;93161.44;5070453;28;20555;-79
2023/10/18 01:34:11;;;;;;;18.30;14.77;;;;;;;9.02;100.00;93142.16;5067858;28;20056;-79
2023/10/18 01:36:41;;;;;;;18.13;14.38;;;;;;;9.14;100.00;93160.25;5070133;28;20044;-79
2023/10/18 01:39:20;;;;;;;17.60;14.02;;;;;;;9.16;100.00;93160.06;5070338;28;20129;-79
2023/10/18 01:41:53;;;;;;;17.80;14.57;;;;;;;9.17;100.00;93159.06;5070392;28;20051;-79
2023/10/18 01:44:27;;;;;;;19.55;15.98;;;;;;;9.11;100.00;93149.63;5065871;28;20048;-79
2023/10/18 01:46:55;;;;;;;19.17;15.30;;;;;;;9.17;100.00;93152.16;5070345;28;20049;-79
2023/10/18 01:49:25;;;;;;;20.60;15.48;;;;;;;9.17;100.00;93148.81;5066994;28;20045;-79
2023/10/18 01:51:54;;;;;;;18.92;15.48;;;;;;;9.03;100.00;93136.03;5068281;28;20064;-79
2023/10/18 01:54:24;;;;;;;17.88;14.65;;;;;;;9.15;100.00;93154.13;5068795;28;20049;-79
2023/10/18 01:56:54;;;;;;;18.88;15.38;;;;;;;9.13;100.00;93152.75;5069815;28;20094;-78
2023/10/18 01:59:25;;;;;;;19.00;15.63;;;;;;;9.12;100.00;93146.84;5069807;28;20122;-78
2023/10/18 02:01:53;;;;;;;18.90;14.85;;;;;;;9.11;100.00;93142.72;5066069;28;20044;-78
2023/10/18 02:04:25;;;;;;;20.27;15.48;;;;;;;9.11;100.00;93147.06;5067975;28;20051;-78
2023/10/18 02:06:57;;;;;;;18.40;14.05;;;;;;;9.17;100.00;93157.28;5070263;28;20041;-78
2023/10/18 02:09:25;;;;;;;18.20;15.20;;;;;;;9.19;100.00;93157.06;5069971;28;20492;-78
2023/10/18 02:11:53;;;;;;;17.38;14.50;;;;;;;9.25;100.00;93153.69;5066163;28;20048;-79
2023/10/18 02:14:20;;;;;;;19.08;14.88;;;;;;;9.23;100.00;93156.47;5068945;28;20055;-80
2023/10/18 02:16:47;;;;;;;18.38;14.32;;;;;;;9.24;100.00;93154.69;5069638;28;20056;-80
2023/10/18 02:19:21;;;;;;;18.48;15.40;;;;;;;9.27;100.00;93148.38;5070060;28;20132;-80
2023/10/18 02:21:48;;;;;;;18.75;14.80;;;;;;;9.26;100.00;93152.72;5065731;28;20497;-80
2023/10/18 02:24:15;;;;;;;17.77;14.75;;;;;;;9.26;100.00;93147.59;5068525;28;20040;-80
2023/10/18 02:26:53;;;;;;;20.15;15.25;;;;;;;9.27;100.00;93158.63;5069433;28;20542;-80
2023/10/18 02:29:22;;;;;;;17.63;14.48;;;;;;;9.29;100.00;93143.81;5065606;28;20123;-80
2023/10/18 02:31:50;;;;;;;15.90;13.63;;;;;;;9.30;100.00;93141.06;5068174;28;20048;-77
2023/10/18 02:34:17;;;;;;;17.08;14.48;;;;;;;9.30;100.00;93145.44;5067747;28;20085;-77
2023/10/18 02:36:48;;;;;;;17.42;13.80;;;;;;;9.29;100.00;93144.63;5068920;28;20088;-79
2023/10/18 02:39:22;;;;;;;16.92;13.30;;;;;;;9.25;100.00;93142.69;5069550;28;20049;-81
2023/10/18 02:41:50;;;;;;;13.77;11.55;;;;;;;9.21;100.00;93144.84;5065738;28;20240;-82
2023/10/18 02:44:22;;;;;;;15.63;12.25;;;;;;;9.09;100.00;93132.66;5068906;28;20504;-81
2023/10/18 02:46:52;;;;;;;13.30;11.80;;;;;;;9.03;100.00;93140.38;5069158;28;20130;-82
2023/10/18 02:49:20;;;;;;;15.10;11.98;;;;;;;9.13;100.00;93152.75;5066558;28;20045;-82
2023/10/18 02:51:47;;;;;;;13.32;11.15;;;;;;;9.07;100.00;93147.47;5066949;28;20082;-81
2023/10/18 02:54:20;;;;;;;14.73;11.70;;;;;;;9.09;100.00;93142.91;5069623;28;20040;-81
2023/10/18 02:56:51;;;;;;;13.93;11.70;;;;;;;8.98;100.00;93125.59;5069204;28;20098;-82
2023/10/18 02:59:20;;;;;;;12.88;11.15;;;;;;;9.15;100.00;93143.88;5064510;28;20048;-81
2023/10/18 03:01:48;;;;;;;12.75;10.82;;;;;;;9.17;100.00;93146.25;5066574;28;20055;-81
2023/10/18 03:04:17;;;;;;;12.10;10.63;;;;;;;9.19;100.00;93150.19;5069185;28;20060;-81
2023/10/18 03:06:46;;;;;;;12.65;11.20;;;;;;;9.20;100.00;93148.41;5067718;28;20044;-81
2023/10/18 03:09:26;;;;;;;12.90;11.55;;;;;;;9.13;100.00;93132.25;5065738;28;20044;-81
2023/10/18 03:11:54;;;;;;;14.00;11.32;;;;;;;9.08;100.00;93120.06;5060386;28;20072;-81
2023/10/18 03:14:35;;;;;;;16.02;12.65;;;;;;;9.03;100.00;93107.84;5068728;28;20048;-81
2023/10/18 03:17:13;;;;;;;17.98;14.02;;;;;;;9.21;100.00;93135.38;5068680;28;20131;-81
2023/10/18 03:19:43;;;;;;;19.95;14.40;;;;;;;9.25;100.00;93138.31;5067015;28;20047;-81
2023/10/18 03:22:10;;;;;;;23.13;16.50;;;;;;;9.16;100.00;93126.75;5065443;28;20044;-82
2023/10/18 03:24:37;;;;;;;26.80;18.92;;;;;;;9.14;100.00;93121.03;5068433;28;20110;-82
2023/10/18 03:27:10;;;;;;;23.05;16.52;;;;;;;9.26;100.00;93128.88;5068284;28;20520;-82
2023/10/18 03:29:38;;;;;;;27.67;18.35;;;;;;;9.26;100.00;93132.19;5065176;28;20048;-81
2023/10/18 03:32:08;;;;;;;28.08;21.52;;;;;;;9.01;100.00;93091.09;5066689;28;20446;-80
2023/10/18 03:34:37;;;;;;;24.85;19.50;;;;;;;9.19;100.00;93119.44;5066104;28;20048;-82
2023/10/18 03:37:07;;;;;;;25.92;18.67;;;;;;;9.27;100.00;93123.56;5066234;28;20055;-81
2023/10/18 03:39:34;;;;;;;19.55;16.42;;;;;;;9.15;100.00;93108.00;5063254;28;20045;-81
2023/10/18 03:42:02;;;;;;;16.98;13.30;;;;;;;9.19;100.00;93111.75;5066800;28;20918;-81
2023/10/18 03:44:32;;;;;;;17.00;13.57;;;;;;;9.23;100.00;93130.06;5066651;28;20044;-82
2023/10/18 03:47:05;;;;;;;17.75;13.07;;;;;;;9.13;100.00;93110.00;5064923;28;20122;-81
2023/10/18 03:49:36;;;;;;;16.33;12.98;;;;;;;9.19;100.00;93118.63;5065270;28;20053;-82
2023/10/18 03:52:16;;;;;;;15.18;12.75;;;;;;;9.19;100.00;93122.00;5068412;28;20052;-83
2023/10/18 03:54:47;;;;;;;14.27;11.80;;;;;;;9.22;100.00;93128.50;5063325;28;20052;-83
2023/10/18 03:57:18;;;;;;;15.52;12.63;;;;;;;9.24;100.00;93139.31;5065156;28;20081;-83
2023/10/18 03:59:46;;;;;;;14.07;11.55;;;;;;;9.19;100.00;93132.25;5066485;28;20045;-83
2023/10/18 04:02:26;;;;;;;14.13;11.77;;;;;;;9.17;100.00;93123.97;5066426;28;20048;-82
2023/10/18 04:04:58;;;;;;;15.02;12.52;;;;;;;9.16;100.00;93111.38;5066023;28;20519;-82
2023/10/18 04:07:26;;;;;;;14.48;12.85;;;;;;;9.14;100.00;93111.56;5059210;28;20049;-83
2023/10/18 04:10:06;;;;;;;17.58;13.55;;;;;;;9.19;100.00;93114.31;5067416;28;20131;-83
2023/10/18 04:12:34;;;;;;;17.85;14.15;;;;;;;9.21;100.00;93119.22;5067812;28;20048;-83
2023/10/18 04:15:00;;;;;;;16.60;13.60;;;;;;;9.23;100.00;93128.28;5061999;28;20052;-81
2023/10/18 04:17:37;;;;;;;17.27;13.60;;;;;;;9.18;100.00;93110.19;5067848;28;20044;-82
2023/10/18 04:20:15;;;;;;;17.20;13.38;;;;;;;9.25;100.00;93107.56;5059791;28;20044;-83
2023/10/18 04:22:43;;;;;;;16.55;13.35;;;;;;;9.16;100.00;93088.31;5065880;28;20044;-83
2023/10/18 04:25:15;;;;;;;16.70;12.82;;;;;;;9.27;100.00;93102.25;5067181;28;20095;-83
2023/10/18 04:27:44;;;;;;;21.13;14.90;;;;;;;9.28;100.00;93103.81;5064593;28;20520;-83
2023/10/18 04:30:15;;;;;;;22.17;16.73;;;;;;;9.29;100.00;93108.75;5067565;28;20457;-83
2023/10/18 04:32:42;;;;;;;18.27;13.90;;;;;;;9.27;100.00;93122.75;5068057;28;20443;-82
2023/10/18 04:35:15;;;;;;;19.65;14.73;;;;;;;9.11;100.00;93091.47;5064315;28;20209;-81
2023/10/18 04:37:43;;;;;;;17.48;14.45;;;;;;;9.28;100.00;93117.44;5066801;28;20048;-81
2023/10/18 04:40:22;;;;;;;16.70;13.38;;;;;;;9.28;100.00;93114.88;5062047;28;20052;-82
2023/10/18 04:42:49;;;;;;;17.13;14.38;;;;;;;9.19;100.00;93122.00;5064530;28;20459;-81
2023/10/18 04:45:18;;;;;;;19.50;15.15;;;;;;;9.16;100.00;93116.50;5057268;28;20158;-82
2023/10/18 04:47:49;;;;;;;19.75;14.60;;;;;;;9.20;100.00;93127.91;5063676;28;20047;-82
2023/10/18 04:50:18;;;;;;;18.73;14.88;;;;;;;9.15;100.00;93117.47;5064593;28;20044;-82
2023/10/18 04:52:47;;;;;;;26.95;17.48;;;;;;;9.17;100.00;93123.97;5066517;28;20084;-82
2023/10/18 04:55:16;;;;;;;31.25;20.58;;;;;;;9.03;100.00;93127.56;5066815;28;20053;-81
2023/10/18 04:57:42;;;;;;;23.15;17.20;;;;;;;8.94;100.00;93112.41;5065424;28;20052;-81
2023/10/18 05:00:24;;;;;;;15.68;12.18;;;;;;;8.93;100.00;93136.44;5059678;28;20420;-81
2023/10/18 05:02:53;;;;;;;16.52;14.07;;;;;;;8.86;100.00;93132.31;5065514;28;20052;-81
2023/10/18 05:05:24;;;;;;;46.45;22.27;;;;;;;8.78;100.00;93125.66;5064276;28;20044;-81
2023/10/18 05:07:53;;;;;;;34.67;19.38;;;;;;;8.79;100.00;93140.81;5062617;28;20049;-81
2023/10/18 05:10:21;;;;;;;40.47;21.60;;;;;;;8.81;100.00;93146.50;5064064;28;20535;-81
2023/10/18 05:12:49;;;;;;;24.92;15.48;;;;;;;8.63;100.00;93120.75;5066484;28;20044;-83
2023/10/18 05:15:21;;;;;;;27.40;17.10;;;;;;;8.83;100.00;93159.13;5063142;28;20076;-83
2023/10/18 05:17:50;;;;;;;18.17;13.52;;;;;;;8.65;100.00;93137.50;5066342;28;20498;-83
2023/10/18 05:20:24;;;;;;;18.95;14.43;;;;;;;8.47;100.00;93162.88;5062490;28;20048;-82
2023/10/18 05:22:52;;;;;;;19.75;15.18;;;;;;;8.48;100.00;93160.09;5064674;28;20097;-82
2023/10/18 05:25:29;;;;;;;23.63;18.75;;;;;;;8.33;100.00;93128.84;5063559;28;20048;-82
2023/10/18 05:28:15;;;;;;;27.77;21.60;;;;;;;8.51;100.00;93176.84;5061207;28;20135;-82
2023/10/18 05:36:29;;;;;;;25.70;20.27;;;;;;;8.35;100.00;93170.34;5058297;28;20078;-82
2023/10/18 05:39:05;;;;;;;24.13;18.33;;;;;;;8.46;100.00;93180.00;5067755;28;20055;-82
2023/10/18 05:41:45;;;;;;;26.13;20.25;;;;;;;8.43;100.00;93176.06;5067274;28;20063;-82
2023/10/18 05:44:12;;;;;;;26.52;19.40;;;;;;;8.57;100.00;93175.31;5069920;28;20048;-82
2023/10/18 05:46:41;;;;;;;26.30;19.80;;;;;;;8.46;100.00;93153.63;5068043;28;20045;-81
2023/10/18 05:49:15;;;;;;;32.78;22.55;;;;;;;8.65;100.00;93175.91;5073463;28;20049;-81
2023/10/18 05:51:51;;;;;;;29.50;21.13;;;;;;;8.65;100.00;93175.09;5066718;28;20393;-81
2023/10/18 05:54:19;;;;;;;30.25;22.33;;;;;;;8.78;100.00;93175.09;5068831;28;20076;-82
2023/10/18 05:56:49;;;;;;;30.02;22.20;;;;;;;8.80;100.00;93164.66;5069001;28;20078;-82
2023/10/18 05:59:27;;;;;;;27.33;20.98;;;;;;;9.01;100.00;93184.13;5066802;28;20041;-82
2023/10/18 06:01:58;;;;;;;29.00;21.77;;;;;;;9.05;100.00;93181.94;5073124;28;20095;-81
2023/10/18 06:04:25;;;;;;;25.27;20.05;;;;;;;8.95;100.00;93172.13;5074611;28;20048;-81
2023/10/18 06:06:54;;;;;;;23.70;18.33;;;;;;;9.08;100.00;93182.34;5066021;28;20041;-81
2023/10/18 06:09:27;;;;;;;24.77;17.65;;;;;;;8.99;100.00;93160.50;5076462;28;20055;-82
2023/10/18 06:11:56;;;;;;;30.27;20.85;;;;;;;9.22;100.00;93172.06;5067012;28;20051;-81
2023/10/18 06:14:25;;;;;;;82.97;44.03;;;;;;;9.41;100.00;93196.06;5063716;28;20036;-81
2023/10/18 06:17:06;;;;;;;50.60;32.03;;;;;;;9.43;100.00;93181.25;5074877;28;20157;-81
2023/10/18 06:19:33;;;;;;;40.15;26.48;;;;;;;9.59;100.00;93192.06;5071540;28;20044;-81
2023/10/18 06:22:14;;;;;;;32.28;23.73;;;;;;;9.67;100.00;93199.50;5080665;28;20143;-81
2023/10/18 06:24:43;;;;;;;25.27;18.88;;;;;;;9.69;100.00;93199.31;5084754;28;20048;-82
2023/10/18 06:27:15;;;;;;;23.10;17.85;;;;;;;9.68;100.00;93183.13;5071321;28;20071;-82
2023/10/18 06:29:43;;;;;;;27.50;19.88;;;;;;;9.85;100.00;93203.97;5072745;28;20539;-82
2023/10/18 06:32:13;;;;;;;27.15;19.60;;;;;;;9.91;100.00;93196.44;5072894;28;20509;-82
2023/10/18 06:34:43;;;;;;;31.83;21.15;;;;;;;9.98;100.00;93202.31;5072570;28;20150;-82
2023/10/18 06:37:20;;;;;;;28.45;21.75;;;;;;;10.03;100.00;93205.06;5072672;28;20135;-82
2023/10/18 06:39:48;;;;;;;25.20;19.20;;;;;;;10.08;100.00;93212.13;5071971;28;20048;-82
2023/10/18 06:42:17;;;;;;;25.20;18.83;;;;;;;10.11;100.00;93217.66;5071411;28;20052;-82
2023/10/18 06:44:44;;;;;;;24.88;17.75;;;;;;;10.09;100.00;93206.78;5073354;28;20398;-81
2023/10/18 06:47:13;;;;;;;25.88;18.15;;;;;;;10.09;100.00;93216.28;5070857;28;20055;-82
2023/10/18 06:49:42;;;;;;;25.15;17.88;;;;;;;10.18;100.00;93216.84;5072217;28;20590;-82
2023/10/18 06:52:09;;;;;;;34.90;22.23;;;;;;;10.19;100.00;93215.84;5070374;28;20077;-82
2023/10/18 06:54:39;;;;;;;35.40;24.98;;;;;;;10.14;100.00;93206.97;5079333;28;20052;-82
2023/10/18 06:57:15;;;;;;;33.05;23.88;;;;;;;10.21;100.00;93211.28;5075786;28;20044;-82
2023/10/18 06:59:46;;;;;;;35.60;25.05;;;;;;;10.24;100.00;93205.72;5073626;28;20500;-82
2023/10/18 07:02:13;;;;;;;36.47;25.83;;;;;;;10.27;100.00;93211.25;5070050;28;20057;-82
2023/10/18 07:04:46;;;;;;;26.95;19.75;;;;;;;10.27;100.00;93216.38;5071442;28;20058;-82
2023/10/18 07:07:19;;;;;;;24.90;18.48;;;;;;;10.31;100.00;93224.44;5071254;28;20051;-83
2023/10/18 07:09:49;;;;;;;26.05;18.80;;;;;;;10.31;100.00;93228.81;5072042;28;20056;-83
2023/10/18 07:12:17;;;;;;;25.45;18.88;;;;;;;10.15;100.00;93216.22;5067348;28;20173;-82
2023/10/18 07:14:45;;;;;;;23.63;18.38;;;;;;;10.13;100.00;93220.78;5066295;28;20501;-82
2023/10/18 07:17:14;;;;;;;22.90;17.85;;;;;;;10.23;100.00;93219.56;5087574;28;20270;-82
2023/10/18 07:19:48;;;;;;;24.25;16.35;;;;;;;10.27;100.00;93228.41;5076970;28;20049;-83
2023/10/18 07:22:20;;;;;;;22.77;17.27;;;;;;;10.29;100.00;93227.22;5081006;28;20419;-82
2023/10/18 07:24:53;;;;;;;24.48;17.42;;;;;;;10.37;100.00;93230.53;5088126;28;20143;-82
2023/10/18 07:27:23;;;;;;;25.80;18.92;;;;;;;10.37;100.00;93220.28;5068470;28;20041;-82
2023/10/18 07:29:51;;;;;;;25.73;18.05;;;;;;;10.23;100.00;93197.22;5070187;28;20052;-82
2023/10/18 07:32:23;;;;;;;28.48;20.25;;;;;;;10.49;100.00;93233.25;5069687;28;20044;-82
2023/10/18 07:34:54;;;;;;;28.95;19.55;;;;;;;10.38;100.00;93222.59;5070726;28;20495;-82
2023/10/18 07:37:31;;;;;;;25.98;19.42;;;;;;;10.53;100.00;93226.69;5071667;28;20048;-82
2023/10/18 07:39:59;;;;;;;27.85;21.17;;;;;;;10.54;100.00;93229.06;5072532;28;20695;-82
2023/10/18 07:42:27;;;;;;;26.95;19.33;;;;;;;10.52;100.00;93220.75;5070349;28;20545;-82
2023/10/18 07:45:03;;;;;;;27.45;19.58;;;;;;;10.46;100.00;93213.13;5069482;28;20048;-83
2023/10/18 07:47:32;;;;;;;;;;;;;;;10.64;100.00;93227.81;5072352;28;20041;-82
2023/10/18 07:50:00;;;;;;;26.70;19.40;;;;;;;10.60;100.00;93226.66;5074388;28;20011;-82
2023/10/18 07:52:26;;;;;;;29.67;19.83;;;;;;;10.60;100.00;93229.22;5072988;28;20049;-83
2023/10/18 07:54:53;;;;;;;27.92;19.58;;;;;;;10.59;100.00;93217.38;5071173;28;20499;-82
2023/10/18 07:57:31;;;;;;;26.15;19.98;;;;;;;10.64;100.00;93223.47;5068541;28;20535;-82
2023/10/18 08:02:43;;;;;;;31.33;20.95;;;;;;;10.60;100.00;93216.38;5065941;28;20094;-82
2023/10/18 08:05:10;;;;;;;30.25;21.08;;;;;;;10.61;100.00;93218.75;5079072;28;20059;-82
2023/10/18 08:07:37;;;;;;;29.25;20.58;;;;;;;10.70;100.00;93232.13;5075857;28;20075;-83
2023/10/18 08:10:08;;;;;;;31.70;21.25;;;;;;;10.55;100.00;93211.84;5084718;28;20156;-83
2023/10/18 08:12:34;;;;;;;33.25;21.13;;;;;;;10.62;100.00;93222.88;5069569;28;20074;-82
2023/10/18 08:15:13;;;;;;;32.92;20.15;;;;;;;10.77;100.00;93234.63;5068702;28;20095;-82
2023/10/18 08:17:44;;;;;;;37.85;22.25;;;;;;;10.78;100.00;93239.56;5061383;28;20049;-82
2023/10/18 08:23:34;;;;;;;31.30;21.83;;;;;;;10.63;100.00;93211.63;5009257;28;20549;-83
2023/10/18 08:26:04;;;;;;;34.35;22.10;;;;;;;10.86;100.00;93248.00;5000813;28;20081;-83
2023/10/18 08:28:38;;;;;;;38.67;23.88;;;;;;;10.92;100.00;93242.81;5056620;28;20052;-83
2023/10/18 08:31:15;;;;;;;41.20;23.85;;;;;;;10.99;100.00;93242.75;5085856;28;20048;-83
2023/10/18 08:33:42;;;;;;;38.72;25.08;;;;;;;11.03;100.00;93245.69;5072401;28;20044;-82
2023/10/18 08:36:13;;;;;;;38.47;27.20;;;;;;;11.07;100.00;93244.28;5068327;28;20412;-82
2023/10/18 08:38:41;;;;;;;33.00;23.65;;;;;;;11.06;100.00;93243.47;5068361;28;20045;-82
2023/10/18 08:41:13;;;;;;;32.08;22.85;;;;;;;11.01;100.00;93227.13;5065964;28;20058;-82
2023/10/18 08:43:59;;;;;;;34.92;23.25;;;;;;;11.18;100.00;93255.63;5085577;28;20048;-82
2023/10/18 08:46:27;;;;;;;35.88;24.38;;;;;;;11.27;100.00;93253.56;5086534;28;20048;-82
2023/10/18 08:48:56;;;;;;;34.17;23.15;;;;;;;11.35;100.00;93259.22;5077463;28;20488;-82
2023/10/18 08:51:27;;;;;;;32.67;23.05;;;;;;;11.43;100.00;93262.53;5069580;28;20137;-82
2023/10/18 08:53:56;;;;;;;31.13;21.17;;;;;;;11.47;100.00;93249.03;5084417;28;20104;-82
2023/10/18 08:56:29;;;;;;;31.58;20.80;;;;;;;11.66;100.00;93261.88;5066049;28;20649;-82
2023/10/18 08:58:57;;;;;;;29.27;20.35;;;;;;;11.75;100.00;93259.81;5067402;28;20048;-82
2023/10/18 09:01:25;;;;;;;27.70;20.58;;;;;;;11.86;100.00;93264.22;5072197;28;20839;-82
2023/10/18 09:03:55;;;;;;;31.13;19.38;;;;;;;11.72;100.00;93245.59;5077290;28;20056;-83
2023/10/18 09:06:30;;;;;;;28.92;20.33;;;;;;;11.74;100.00;93258.25;5083022;28;20149;-83
2023/10/18 09:09:04;;;;;;;28.52;20.92;;;;;;;11.74;100.00;93269.34;5067396;28;20049;-83
2023/10/18 09:11:33;;;;;;;30.58;20.42;;;;;;;11.72;100.00;93247.38;5070130;28;20050;-82
2023/10/18 09:14:08;;;;;;;31.98;21.67;;;;;;;11.95;100.00;93269.88;5059116;28;20829;-82
2023/10/18 09:16:39;;;;;;;32.10;21.50;;;;;;;11.96;100.00;93273.25;5069316;28;20420;-83
2023/10/18 09:19:09;;;;;;;32.53;21.63;;;;;;;12.07;100.00;93274.34;5067091;28;20072;-83
2023/10/18 09:21:42;;;;;;;35.22;21.67;;;;;;;12.29;100.00;93275.44;5070758;28;20142;-82
2023/10/18 09:24:14;;;;;;;33.85;22.40;;;;;;;12.39;100.00;93274.91;5085415;28;20048;-81
2023/10/18 09:26:44;;;;;;;29.83;20.33;;;;;;;12.26;100.00;93270.72;5074126;28;20045;-81
2023/10/18 09:29:11;;;;;;;28.75;20.75;;;;;;;12.55;100.00;93275.31;5074340;28;20055;-82
2023/10/18 09:31:54;;;;;;;29.42;17.90;;;;;;;12.74;100.00;93268.28;5086074;28;20052;-82
2023/10/18 09:34:23;;;;;;;33.55;19.35;;;;;;;12.92;100.00;93272.56;5069997;28;20056;-81
2023/10/18 09:36:54;;;;;;;35.83;20.23;;;;;;;12.63;100.00;93249.22;5071074;28;20139;-81
2023/10/18 09:39:24;;;;;;;32.83;20.00;;;;;;;12.74;100.00;93265.72;5066971;28;20048;-81
2023/10/18 09:41:51;;;;;;;32.72;17.50;;;;;;;12.92;100.00;93269.97;5066198;28;20550;-81
2023/10/18 09:44:18;;;;;;;28.45;17.48;;;;;;;12.93;100.00;93269.00;5078675;28;20052;-80
2023/10/18 09:46:48;;;;;;;31.65;18.25;;;;;;;13.06;100.00;93255.09;5071369;28;20501;-81
2023/10/18 09:49:21;;;;;;;33.83;18.15;;;;;;;13.27;100.00;93247.81;5072857;28;20052;-80
2023/10/18 09:51:54;;;;;;;27.23;17.15;;;;;;;13.45;100.00;93235.78;5068164;28;20174;-80
2023/10/18 09:54:22;;;;;;;29.50;18.58;;;;;;;13.58;100.00;93234.78;5070595;28;20130;-80
2023/10/18 09:56:54;;;;;;;28.10;17.70;;;;;;;13.88;100.00;93249.31;5071744;28;20579;-81
2023/10/18 09:59:27;;;;;;;24.27;15.80;;;;;;;13.99;96.33;93251.06;5080940;28;20055;-81
2023/10/18 10:02:00;;;;;;;27.48;16.13;;;;;;;14.17;96.73;93246.75;5089016;28;20062;-81
2023/10/18 10:04:32;;;;;;;26.65;16.20;;;;;;;14.32;99.82;93237.69;5073674;28;20405;-81
2023/10/18 10:09:46;;;;;;;24.40;15.43;;;;;;;14.55;93.97;93242.75;5069080;28;20052;-81
2023/10/18 10:12:16;;;;;;;26.08;15.93;;;;;;;14.58;92.92;93236.31;5070465;28;20136;-81
2023/10/18 10:14:43;;;;;;;23.55;14.80;;;;;;;14.68;92.37;93233.16;5069423;28;20672;-81
2023/10/18 10:17:15;;;;;;;21.88;14.77;;;;;;;14.75;94.12;93226.03;5072629;28;20064;-81
2023/10/18 10:19:46;;;;;;;22.90;13.55;;;;;;;14.76;94.70;93232.00;5070866;28;20170;-80
2023/10/18 10:22:17;;;;;;;24.48;14.63;;;;;;;14.74;95.17;93210.72;5073488;28;21099;-81
2023/10/18 10:24:50;;;;;;;23.55;13.90;;;;;;;14.90;93.31;93224.72;5077186;28;20051;-81
2023/10/18 10:27:41;;;;;;;18.60;12.50;;;;;;;15.00;92.80;93219.66;5074692;28;20048;-80
2023/10/18 10:30:19;;;;;;;22.88;13.45;;;;;;;15.10;91.98;93219.06;5073018;28;20561;-81
2023/10/18 10:32:47;;;;;;;20.13;12.88;;;;;;;15.07;92.04;93214.34;5083791;28;20054;-81
2023/10/18 10:35:16;;;;;;;22.70;13.93;;;;;;;15.06;90.33;93218.75;5077823;28;20063;-80
2023/10/18 10:38:09;;;;;;;20.35;13.80;;;;;;;14.07;91.28;93192.34;5073020;28;20455;-80
2023/10/18 10:40:43;;;;;;;20.88;13.10;;;;;;;13.48;95.50;93202.59;5069921;28;20143;-80
2023/10/18 10:43:12;;;;;;;21.70;14.63;;;;;;;13.25;96.38;93207.78;5075769;28;20415;-80
2023/10/18 10:45:43;;;;;;;23.90;14.77;;;;;;;13.51;96.63;93208.34;5070099;28;20049;-80
2023/10/18 10:48:32;;;;;;;28.38;17.42;;;;;;;13.48;97.63;93207.00;5068906;28;20412;-80
2023/10/18 10:51:08;;;;;;;28.98;19.20;;;;;;;13.25;99.01;93218.88;5073882;28;20051;-80
2023/10/18 10:53:43;;;;;;;36.88;21.33;;;;;;;13.01;98.96;93212.94;5069487;28;20048;-80
2023/10/18 10:56:20;;;;;;;26.52;17.15;;;;;;;13.17;100.00;93212.28;5065584;28;20063;-80
2023/10/18 10:58:55;;;;;;;24.77;15.57;;;;;;;13.06;100.00;93213.06;5074103;28;20497;-79
2023/10/18 11:01:39;;;;;;;21.83;13.70;;;;;;;12.83;100.00;93212.81;5070569;28;20053;-81
2023/10/18 11:04:14;;;;;;;22.75;13.05;;;;;;;12.51;100.00;93189.16;5078511;28;20507;-79
2023/10/18 11:06:43;;;;;;;23.02;14.35;;;;;;;12.54;100.00;93199.00;5087785;28;20124;-79
2023/10/18 11:09:16;;;;;;;20.83;13.57;;;;;;;12.22;100.00;93212.91;5071227;28;20102;-79
2023/10/18 11:11:45;;;;;;;19.95;13.52;;;;;;;12.22;100.00;93202.63;5080012;28;20067;-80
2023/10/18 11:14:17;;;;;;;24.08;13.30;;;;;;;12.20;100.00;93201.28;5087161;28;20060;-79
2023/10/18 11:16:46;;;;;;;21.73;13.20;;;;;;;12.22;100.00;93199.28;5070056;28;20143;-80
2023/10/18 11:19:15;;;;;;;27.08;16.35;;;;;;;12.27;100.00;93205.31;5080622;28;20101;-80
2023/10/18 11:21:43;;;;;;;23.05;15.88;;;;;;;12.28;100.00;93200.97;5078955;28;20041;-80
2023/10/18 11:24:13;;;;;;;23.90;14.45;;;;;;;12.31;100.00;93202.31;5071850;28;20101;-81
2023/10/18 11:26:41;;;;;;;24.60;14.02;;;;;;;12.22;100.00;93181.25;5070516;28;20088;-81
2023/10/18 11:29:08;;;;;;;22.30;15.02;;;;;;;12.58;100.00;93194.97;5083441;28;20052;-81
2023/10/18 11:31:38;;;;;;;21.25;13.25;;;;;;;12.58;100.00;93199.34;5069571;28;20055;-81
2023/10/18 11:34:14;;;;;;;19.42;12.40;;;;;;;12.63;100.00;93184.78;5073809;28;20051;-80
2023/10/18 11:36:42;;;;;;;22.17;13.32;;;;;;;12.89;100.00;93202.63;5066637;28;20103;-80
2023/10/18 11:39:21;;;;;;;20.48;12.80;;;;;;;12.27;100.00;93177.00;5087326;28;20052;-80
2023/10/18 11:41:53;;;;;;;20.67;14.07;;;;;;;12.61;100.00;93198.91;5081972;28;20048;-80
2023/10/18 11:44:28;;;;;;;24.52;14.85;;;;;;;12.79;100.00;93205.75;5072227;28;20055;-80
2023/10/18 11:47:01;;;;;;;26.38;13.68;;;;;;;12.93;100.00;93194.22;5070286;28;20480;-81